< < Back
Terminal Aerodrome Forecast


Current Version              Previous Versions:   1  2  3  4  5  6  7  8  9  

Terminal Aerodrome Forecast

797
FTAK31 PAJN 250100 AAA
TAFAHN
TAF AMD
PAHN 250101Z 2501/2524 30012G25KT P6SM -RA BKN015 OVC030
     FM251200 09010KT P6SM -SHRA SCT015 BKN030 OVC050
     FM251800 31010KT P6SM VCSH BKN050 WS020/17025KT
      AMD LTD TO CLD VIS AND WIND=

Latest METAR

524
SAUS70 KWBC 251000
MTRAHN
METAR KAHN 250951Z 00000KT 10SM CLR 00/M03 A2994 RMK AO2 SLP143
T00001028


USA.gov is the U.S. government's official web portal to all federal, state and local government web resources and services.